sensor_id;sensor_type;location;lat;lon;timestamp;P1;durP1;ratioP1;P2;durP2;ratioP2
15913;SDS011;8055;51.930;8.840;2023-02-28T00:01:24;7.57;;;3.60;;
15913;SDS011;8055;51.930;8.840;2023-02-28T00:03:49;9.15;;;4.65;;
15913;SDS011;8055;51.930;8.840;2023-02-28T00:06:15;9.43;;;4.80;;
15913;SDS011;8055;51.930;8.840;2023-02-28T00:08:40;10.43;;;5.22;;
15913;SDS011;8055;51.930;8.840;2023-02-28T00:11:07;6.53;;;3.80;;
15913;SDS011;8055;51.930;8.840;2023-02-28T00:13:36;7.75;;;4.15;;
15913;SDS011;8055;51.930;8.840;2023-02-28T00:16:04;6.10;;;3.38;;
15913;SDS011;8055;51.930;8.840;2023-02-28T00:18:31;7.18;;;4.13;;
15913;SDS011;8055;51.930;8.840;2023-02-28T00:20:57;7.22;;;3.72;;
15913;SDS011;8055;51.930;8.840;2023-02-28T00:23:23;42.35;;;14.60;;
15913;SDS011;8055;51.930;8.840;2023-02-28T00:25:48;29.42;;;9.93;;
15913;SDS011;8055;51.930;8.840;2023-02-28T00:28:15;9.55;;;4.40;;
15913;SDS011;8055;51.930;8.840;2023-02-28T00:30:40;7.38;;;3.53;;
15913;SDS011;8055;51.930;8.840;2023-02-28T00:33:06;7.32;;;3.38;;
15913;SDS011;8055;51.930;8.840;2023-02-28T00:35:31;6.60;;;3.33;;
15913;SDS011;8055;51.930;8.840;2023-02-28T00:37:56;6.53;;;3.40;;
15913;SDS011;8055;51.930;8.840;2023-02-28T00:40:22;7.03;;;3.17;;
15913;SDS011;8055;51.930;8.840;2023-02-28T00:42:47;5.93;;;3.17;;
15913;SDS011;8055;51.930;8.840;2023-02-28T00:45:12;8.00;;;3.25;;
15913;SDS011;8055;51.930;8.840;2023-02-28T00:47:38;4.15;;;2.50;;
15913;SDS011;8055;51.930;8.840;2023-02-28T00:50:03;4.03;;;2.47;;
15913;SDS011;8055;51.930;8.840;2023-02-28T00:52:30;4.80;;;2.30;;
15913;SDS011;8055;51.930;8.840;2023-02-28T00:54:55;3.05;;;2.10;;
15913;SDS011;8055;51.930;8.840;2023-02-28T00:57:21;6.30;;;2.90;;
15913;SDS011;8055;51.930;8.840;2023-02-28T00:59:46;9.82;;;3.22;;
15913;SDS011;8055;51.930;8.840;2023-02-28T01:02:12;6.90;;;3.15;;
15913;SDS011;8055;51.930;8.840;2023-02-28T01:04:37;4.75;;;2.60;;
15913;SDS011;8055;51.930;8.840;2023-02-28T01:07:02;6.82;;;2.67;;
15913;SDS011;8055;51.930;8.840;2023-02-28T01:09:28;6.07;;;3.15;;
15913;SDS011;8055;51.930;8.840;2023-02-28T01:11:54;4.60;;;2.90;;
15913;SDS011;8055;51.930;8.840;2023-02-28T01:14:19;8.48;;;3.30;;
15913;SDS011;8055;51.930;8.840;2023-02-28T01:16:45;5.25;;;2.65;;
15913;SDS011;8055;51.930;8.840;2023-02-28T01:19:11;3.75;;;2.40;;
15913;SDS011;8055;51.930;8.840;2023-02-28T01:21:36;5.00;;;2.80;;
15913;SDS011;8055;51.930;8.840;2023-02-28T01:24:02;4.55;;;2.45;;
15913;SDS011;8055;51.930;8.840;2023-02-28T01:26:29;7.03;;;2.70;;
15913;SDS011;8055;51.930;8.840;2023-02-28T01:28:55;5.55;;;2.35;;
15913;SDS011;8055;51.930;8.840;2023-02-28T01:31:21;4.22;;;2.30;;
15913;SDS011;8055;51.930;8.840;2023-02-28T01:33:47;6.63;;;2.20;;
15913;SDS011;8055;51.930;8.840;2023-02-28T01:36:18;4.82;;;2.30;;
15913;SDS011;8055;51.930;8.840;2023-02-28T01:38:46;14.65;;;5.47;;
15913;SDS011;8055;51.930;8.840;2023-02-28T01:41:22;27.10;;;8.57;;
15913;SDS011;8055;51.930;8.840;2023-02-28T01:46:15;18.40;;;6.70;;
15913;SDS011;8055;51.930;8.840;2023-02-28T01:48:44;17.85;;;6.50;;
15913;SDS011;8055;51.930;8.840;2023-02-28T01:51:15;21.17;;;6.95;;
15913;SDS011;8055;51.930;8.840;2023-02-28T01:56:22;13.65;;;4.38;;
15913;SDS011;8055;51.930;8.840;2023-02-28T01:58:51;10.07;;;3.45;;
15913;SDS011;8055;51.930;8.840;2023-02-28T02:01:18;8.55;;;2.85;;
15913;SDS011;8055;51.930;8.840;2023-02-28T02:03:51;5.80;;;2.28;;
15913;SDS011;8055;51.930;8.840;2023-02-28T02:06:22;6.47;;;2.15;;
15913;SDS011;8055;51.930;8.840;2023-02-28T02:08:49;3.63;;;2.05;;
15913;SDS011;8055;51.930;8.840;2023-02-28T02:11:16;3.45;;;2.10;;
15913;SDS011;8055;51.930;8.840;2023-02-28T02:14:07;6.45;;;2.55;;
15913;SDS011;8055;51.930;8.840;2023-02-28T02:17:12;4.32;;;2.42;;
15913;SDS011;8055;51.930;8.840;2023-02-28T02:20:08;3.28;;;2.10;;
15913;SDS011;8055;51.930;8.840;2023-02-28T02:42:16;3.83;;;1.70;;
15913;SDS011;8055;51.930;8.840;2023-02-28T02:44:48;4.85;;;1.90;;
15913;SDS011;8055;51.930;8.840;2023-02-28T02:47:19;3.72;;;1.85;;
15913;SDS011;8055;51.930;8.840;2023-02-28T02:49:50;5.15;;;1.90;;
15913;SDS011;8055;51.930;8.840;2023-02-28T02:52:18;3.33;;;1.70;;
15913;SDS011;8055;51.930;8.840;2023-02-28T02:54:48;8.52;;;2.03;;
15913;SDS011;8055;51.930;8.840;2023-02-28T02:57:22;7.25;;;2.42;;
15913;SDS011;8055;51.930;8.840;2023-02-28T02:59:52;7.10;;;2.22;;
15913;SDS011;8055;51.930;8.840;2023-02-28T03:02:21;5.00;;;2.00;;
15913;SDS011;8055;51.930;8.840;2023-02-28T03:04:51;3.58;;;1.85;;
15913;SDS011;8055;51.930;8.840;2023-02-28T03:07:19;5.68;;;2.17;;
15913;SDS011;8055;51.930;8.840;2023-02-28T03:09:54;5.03;;;2.20;;
15913;SDS011;8055;51.930;8.840;2023-02-28T03:12:20;2.60;;;1.67;;
15913;SDS011;8055;51.930;8.840;2023-02-28T03:15:02;3.05;;;1.70;;
15913;SDS011;8055;51.930;8.840;2023-02-28T03:20:17;3.42;;;2.08;;
15913;SDS011;8055;51.930;8.840;2023-02-28T03:22:57;2.17;;;1.77;;
15913;SDS011;8055;51.930;8.840;2023-02-28T03:25:56;2.67;;;1.83;;
15913;SDS011;8055;51.930;8.840;2023-02-28T03:31:14;6.05;;;2.30;;
15913;SDS011;8055;51.930;8.840;2023-02-28T03:33:44;4.47;;;2.00;;
15913;SDS011;8055;51.930;8.840;2023-02-28T03:36:20;3.50;;;2.13;;
15913;SDS011;8055;51.930;8.840;2023-02-28T03:38:52;3.20;;;2.00;;
15913;SDS011;8055;51.930;8.840;2023-02-28T03:41:27;2.50;;;1.70;;
15913;SDS011;8055;51.930;8.840;2023-02-28T03:44:05;3.67;;;2.40;;
15913;SDS011;8055;51.930;8.840;2023-02-28T03:46:37;5.25;;;2.50;;
15913;SDS011;8055;51.930;8.840;2023-02-28T03:49:18;2.80;;;1.88;;
15913;SDS011;8055;51.930;8.840;2023-02-28T03:51:49;2.90;;;2.03;;
15913;SDS011;8055;51.930;8.840;2023-02-28T03:54:17;2.28;;;1.90;;
15913;SDS011;8055;51.930;8.840;2023-02-28T04:00:00;3.45;;;2.03;;
15913;SDS011;8055;51.930;8.840;2023-02-28T04:02:11;3.08;;;2.10;;
15913;SDS011;8055;51.930;8.840;2023-02-28T04:04:36;2.33;;;1.98;;
15913;SDS011;8055;51.930;8.840;2023-02-28T04:07:03;4.97;;;2.30;;
15913;SDS011;8055;51.930;8.840;2023-02-28T04:09:31;3.15;;;1.85;;
15913;SDS011;8055;51.930;8.840;2023-02-28T04:11:56;1.55;;;1.45;;
15913;SDS011;8055;51.930;8.840;2023-02-28T04:14:22;3.65;;;2.20;;
15913;SDS011;8055;51.930;8.840;2023-02-28T04:16:48;2.35;;;1.60;;
15913;SDS011;8055;51.930;8.840;2023-02-28T04:19:14;3.80;;;1.60;;
15913;SDS011;8055;51.930;8.840;2023-02-28T04:21:41;5.00;;;2.00;;
15913;SDS011;8055;51.930;8.840;2023-02-28T04:24:08;2.83;;;1.65;;
15913;SDS011;8055;51.930;8.840;2023-02-28T04:26:39;3.67;;;1.83;;
15913;SDS011;8055;51.930;8.840;2023-02-28T04:29:06;4.03;;;2.55;;
15913;SDS011;8055;51.930;8.840;2023-02-28T04:31:32;2.28;;;1.48;;
15913;SDS011;8055;51.930;8.840;2023-02-28T04:33:58;2.20;;;1.75;;
15913;SDS011;8055;51.930;8.840;2023-02-28T04:36:24;2.92;;;1.63;;
15913;SDS011;8055;51.930;8.840;2023-02-28T04:38:50;2.20;;;1.80;;
15913;SDS011;8055;51.930;8.840;2023-02-28T04:41:16;2.85;;;2.05;;
15913;SDS011;8055;51.930;8.840;2023-02-28T04:43:42;4.57;;;1.80;;
15913;SDS011;8055;51.930;8.840;2023-02-28T04:46:07;2.85;;;2.05;;
15913;SDS011;8055;51.930;8.840;2023-02-28T04:48:34;1.77;;;1.52;;
15913;SDS011;8055;51.930;8.840;2023-02-28T04:51:01;2.70;;;1.75;;
15913;SDS011;8055;51.930;8.840;2023-02-28T04:53:28;2.88;;;1.73;;
15913;SDS011;8055;51.930;8.840;2023-02-28T04:55:54;3.10;;;1.85;;
15913;SDS011;8055;51.930;8.840;2023-02-28T04:58:20;5.25;;;1.80;;
15913;SDS011;8055;51.930;8.840;2023-02-28T05:00:49;3.05;;;1.70;;
15913;SDS011;8055;51.930;8.840;2023-02-28T05:03:15;3.38;;;1.90;;
15913;SDS011;8055;51.930;8.840;2023-02-28T05:05:40;3.28;;;1.65;;
15913;SDS011;8055;51.930;8.840;2023-02-28T05:08:06;2.78;;;2.00;;
15913;SDS011;8055;51.930;8.840;2023-02-28T05:10:31;3.10;;;2.10;;
15913;SDS011;8055;51.930;8.840;2023-02-28T05:12:57;4.40;;;2.30;;
15913;SDS011;8055;51.930;8.840;2023-02-28T05:15:22;5.70;;;2.10;;
15913;SDS011;8055;51.930;8.840;2023-02-28T05:17:49;3.35;;;2.08;;
15913;SDS011;8055;51.930;8.840;2023-02-28T05:20:14;4.85;;;2.22;;
15913;SDS011;8055;51.930;8.840;2023-02-28T05:22:40;4.18;;;2.35;;
15913;SDS011;8055;51.930;8.840;2023-02-28T05:25:06;2.78;;;1.77;;
15913;SDS011;8055;51.930;8.840;2023-02-28T05:27:34;3.45;;;2.40;;
15913;SDS011;8055;51.930;8.840;2023-02-28T05:29:59;2.58;;;2.03;;
15913;SDS011;8055;51.930;8.840;2023-02-28T05:32:27;8.25;;;2.10;;
15913;SDS011;8055;51.930;8.840;2023-02-28T05:34:52;11.57;;;2.30;;
15913;SDS011;8055;51.930;8.840;2023-02-28T05:37:18;57.95;;;5.18;;
15913;SDS011;8055;51.930;8.840;2023-02-28T05:39:43;11.05;;;2.30;;
15913;SDS011;8055;51.930;8.840;2023-02-28T05:42:08;5.18;;;2.17;;
15913;SDS011;8055;51.930;8.840;2023-02-28T05:44:34;4.65;;;1.92;;
15913;SDS011;8055;51.930;8.840;2023-02-28T05:47:00;3.92;;;2.05;;
15913;SDS011;8055;51.930;8.840;2023-02-28T05:49:25;3.78;;;2.15;;
15913;SDS011;8055;51.930;8.840;2023-02-28T05:51:51;8.07;;;4.13;;
15913;SDS011;8055;51.930;8.840;2023-02-28T05:54:16;6.38;;;3.88;;
15913;SDS011;8055;51.930;8.840;2023-02-28T05:56:41;6.18;;;2.90;;
15913;SDS011;8055;51.930;8.840;2023-02-28T05:59:10;3.50;;;2.15;;
15913;SDS011;8055;51.930;8.840;2023-02-28T06:01:41;3.40;;;2.22;;
15913;SDS011;8055;51.930;8.840;2023-02-28T06:04:13;4.00;;;2.03;;
15913;SDS011;8055;51.930;8.840;2023-02-28T06:06:46;3.53;;;2.28;;
15913;SDS011;8055;51.930;8.840;2023-02-28T06:09:12;4.78;;;2.75;;
15913;SDS011;8055;51.930;8.840;2023-02-28T06:11:37;5.57;;;3.10;;
15913;SDS011;8055;51.930;8.840;2023-02-28T06:14:03;4.38;;;2.90;;
15913;SDS011;8055;51.930;8.840;2023-02-28T06:16:29;4.70;;;2.75;;
15913;SDS011;8055;51.930;8.840;2023-02-28T06:18:59;4.07;;;2.75;;
15913;SDS011;8055;51.930;8.840;2023-02-28T06:21:26;4.20;;;2.90;;
15913;SDS011;8055;51.930;8.840;2023-02-28T06:23:53;6.13;;;2.92;;
15913;SDS011;8055;51.930;8.840;2023-02-28T06:26:19;9.35;;;4.82;;
15913;SDS011;8055;51.930;8.840;2023-02-28T06:28:44;6.03;;;4.18;;
15913;SDS011;8055;51.930;8.840;2023-02-28T06:31:11;8.73;;;5.15;;
15913;SDS011;8055;51.930;8.840;2023-02-28T06:33:38;9.68;;;5.20;;
15913;SDS011;8055;51.930;8.840;2023-02-28T06:36:06;11.63;;;5.55;;
15913;SDS011;8055;51.930;8.840;2023-02-28T06:38:32;11.07;;;6.03;;
15913;SDS011;8055;51.930;8.840;2023-02-28T06:40:59;10.38;;;5.85;;
15913;SDS011;8055;51.930;8.840;2023-02-28T06:43:26;9.52;;;6.32;;
15913;SDS011;8055;51.930;8.840;2023-02-28T06:45:54;11.73;;;6.75;;
15913;SDS011;8055;51.930;8.840;2023-02-28T06:48:20;10.10;;;6.28;;
15913;SDS011;8055;51.930;8.840;2023-02-28T06:50:46;9.48;;;6.05;;
15913;SDS011;8055;51.930;8.840;2023-02-28T06:53:12;8.73;;;5.78;;
15913;SDS011;8055;51.930;8.840;2023-02-28T06:55:38;8.32;;;5.57;;
15913;SDS011;8055;51.930;8.840;2023-02-28T06:58:04;14.27;;;8.13;;
15913;SDS011;8055;51.930;8.840;2023-02-28T07:00:39;8.02;;;5.07;;
15913;SDS011;8055;51.930;8.840;2023-02-28T07:03:06;11.43;;;6.25;;
15913;SDS011;8055;51.930;8.840;2023-02-28T07:05:31;10.73;;;5.10;;
15913;SDS011;8055;51.930;8.840;2023-02-28T07:07:56;9.95;;;6.05;;
15913;SDS011;8055;51.930;8.840;2023-02-28T07:10:22;8.98;;;4.88;;
15913;SDS011;8055;51.930;8.840;2023-02-28T07:12:47;7.88;;;4.93;;
15913;SDS011;8055;51.930;8.840;2023-02-28T07:15:13;10.38;;;6.68;;
15913;SDS011;8055;51.930;8.840;2023-02-28T07:17:38;10.00;;;6.30;;
15913;SDS011;8055;51.930;8.840;2023-02-28T07:20:04;8.20;;;5.15;;
15913;SDS011;8055;51.930;8.840;2023-02-28T07:22:29;9.52;;;5.97;;
15913;SDS011;8055;51.930;8.840;2023-02-28T07:24:55;12.77;;;6.60;;
15913;SDS011;8055;51.930;8.840;2023-02-28T07:27:20;9.57;;;6.47;;
15913;SDS011;8055;51.930;8.840;2023-02-28T07:29:50;11.30;;;5.68;;
15913;SDS011;8055;51.930;8.840;2023-02-28T07:32:17;9.60;;;7.13;;
15913;SDS011;8055;51.930;8.840;2023-02-28T07:34:43;11.15;;;7.68;;
15913;SDS011;8055;51.930;8.840;2023-02-28T07:37:09;12.32;;;6.25;;
15913;SDS011;8055;51.930;8.840;2023-02-28T07:39:34;9.40;;;5.75;;
15913;SDS011;8055;51.930;8.840;2023-02-28T07:41:59;5.78;;;4.05;;
15913;SDS011;8055;51.930;8.840;2023-02-28T07:44:26;7.38;;;4.50;;
15913;SDS011;8055;51.930;8.840;2023-02-28T07:46:52;7.85;;;4.78;;
15913;SDS011;8055;51.930;8.840;2023-02-28T07:49:18;6.75;;;4.13;;
15913;SDS011;8055;51.930;8.840;2023-02-28T07:51:43;7.00;;;4.22;;
15913;SDS011;8055;51.930;8.840;2023-02-28T07:54:08;6.55;;;4.00;;
15913;SDS011;8055;51.930;8.840;2023-02-28T07:56:34;6.35;;;4.18;;
15913;SDS011;8055;51.930;8.840;2023-02-28T07:58:59;7.78;;;4.68;;
15913;SDS011;8055;51.930;8.840;2023-02-28T08:01:26;6.15;;;4.53;;
15913;SDS011;8055;51.930;8.840;2023-02-28T08:03:51;10.68;;;5.70;;
15913;SDS011;8055;51.930;8.840;2023-02-28T08:06:19;9.93;;;5.90;;
15913;SDS011;8055;51.930;8.840;2023-02-28T08:08:47;11.18;;;6.95;;
15913;SDS011;8055;51.930;8.840;2023-02-28T08:11:13;11.95;;;7.63;;
15913;SDS011;8055;51.930;8.840;2023-02-28T08:13:38;16.10;;;8.10;;
15913;SDS011;8055;51.930;8.840;2023-02-28T08:16:04;12.80;;;8.35;;
15913;SDS011;8055;51.930;8.840;2023-02-28T08:18:29;15.05;;;7.88;;
15913;SDS011;8055;51.930;8.840;2023-02-28T08:20:54;12.15;;;7.70;;
15913;SDS011;8055;51.930;8.840;2023-02-28T08:23:20;14.63;;;8.07;;
15913;SDS011;8055;51.930;8.840;2023-02-28T08:25:52;13.10;;;8.35;;
15913;SDS011;8055;51.930;8.840;2023-02-28T08:28:18;15.25;;;8.15;;
15913;SDS011;8055;51.930;8.840;2023-02-28T08:30:44;14.52;;;7.93;;
15913;SDS011;8055;51.930;8.840;2023-02-28T08:33:09;10.65;;;7.05;;
15913;SDS011;8055;51.930;8.840;2023-02-28T08:35:35;9.20;;;6.10;;
15913;SDS011;8055;51.930;8.840;2023-02-28T08:38:02;10.02;;;6.32;;
15913;SDS011;8055;51.930;8.840;2023-02-28T08:40:27;7.80;;;5.63;;
15913;SDS011;8055;51.930;8.840;2023-02-28T08:42:52;7.10;;;5.65;;
15913;SDS011;8055;51.930;8.840;2023-02-28T08:45:18;9.65;;;5.53;;
15913;SDS011;8055;51.930;8.840;2023-02-28T08:47:43;11.75;;;6.25;;
15913;SDS011;8055;51.930;8.840;2023-02-28T08:50:09;8.90;;;5.85;;
15913;SDS011;8055;51.930;8.840;2023-02-28T08:52:34;11.13;;;5.72;;
15913;SDS011;8055;51.930;8.840;2023-02-28T08:55:00;10.40;;;5.95;;
15913;SDS011;8055;51.930;8.840;2023-02-28T08:57:25;10.43;;;5.93;;
15913;SDS011;8055;51.930;8.840;2023-02-28T08:59:51;6.57;;;4.57;;
15913;SDS011;8055;51.930;8.840;2023-02-28T09:02:17;8.95;;;6.13;;
15913;SDS011;8055;51.930;8.840;2023-02-28T09:04:43;10.10;;;5.50;;
15913;SDS011;8055;51.930;8.840;2023-02-28T09:07:10;13.63;;;6.75;;
15913;SDS011;8055;51.930;8.840;2023-02-28T09:09:36;9.07;;;6.25;;
15913;SDS011;8055;51.930;8.840;2023-02-28T09:12:01;8.90;;;5.88;;
15913;SDS011;8055;51.930;8.840;2023-02-28T09:14:27;11.05;;;6.75;;
15913;SDS011;8055;51.930;8.840;2023-02-28T09:16:52;9.57;;;5.85;;
15913;SDS011;8055;51.930;8.840;2023-02-28T09:19:18;9.73;;;5.95;;
15913;SDS011;8055;51.930;8.840;2023-02-28T09:21:43;10.85;;;6.40;;
15913;SDS011;8055;51.930;8.840;2023-02-28T09:24:08;7.78;;;5.65;;
15913;SDS011;8055;51.930;8.840;2023-02-28T09:26:36;8.13;;;5.45;;
15913;SDS011;8055;51.930;8.840;2023-02-28T09:29:02;11.40;;;5.85;;
15913;SDS011;8055;51.930;8.840;2023-02-28T09:31:28;10.48;;;6.03;;
15913;SDS011;8055;51.930;8.840;2023-02-28T09:33:55;8.85;;;5.05;;
15913;SDS011;8055;51.930;8.840;2023-02-28T09:36:22;8.00;;;5.38;;
15913;SDS011;8055;51.930;8.840;2023-02-28T09:38:49;9.40;;;5.47;;
15913;SDS011;8055;51.930;8.840;2023-02-28T09:41:20;7.82;;;4.82;;
15913;SDS011;8055;51.930;8.840;2023-02-28T09:43:49;10.77;;;5.70;;
15913;SDS011;8055;51.930;8.840;2023-02-28T09:49:03;7.80;;;5.20;;
15913;SDS011;8055;51.930;8.840;2023-02-28T09:54:27;7.82;;;5.00;;
15913;SDS011;8055;51.930;8.840;2023-02-28T09:56:59;7.88;;;4.80;;
15913;SDS011;8055;51.930;8.840;2023-02-28T09:59:51;10.77;;;5.43;;
15913;SDS011;8055;51.930;8.840;2023-02-28T10:08:25;6.13;;;2.95;;
15913;SDS011;8055;51.930;8.840;2023-02-28T10:10:58;5.00;;;3.03;;
15913;SDS011;8055;51.930;8.840;2023-02-28T10:13:32;4.70;;;3.10;;
15913;SDS011;8055;51.930;8.840;2023-02-28T10:16:02;3.88;;;2.85;;
15913;SDS011;8055;51.930;8.840;2023-02-28T10:21:28;3.67;;;2.80;;
15913;SDS011;8055;51.930;8.840;2023-02-28T10:24:14;4.60;;;2.90;;
15913;SDS011;8055;51.930;8.840;2023-02-28T10:26:45;4.32;;;2.58;;
15913;SDS011;8055;51.930;8.840;2023-02-28T10:29:12;7.10;;;3.08;;
15913;SDS011;8055;51.930;8.840;2023-02-28T10:31:38;4.05;;;2.58;;
15913;SDS011;8055;51.930;8.840;2023-02-28T10:34:04;6.05;;;2.75;;
15913;SDS011;8055;51.930;8.840;2023-02-28T10:36:31;3.42;;;2.30;;
15913;SDS011;8055;51.930;8.840;2023-02-28T10:38:57;4.55;;;2.60;;
15913;SDS011;8055;51.930;8.840;2023-02-28T10:41:29;6.18;;;2.40;;
15913;SDS011;8055;51.930;8.840;2023-02-28T10:44:12;6.47;;;2.53;;
15913;SDS011;8055;51.930;8.840;2023-02-28T10:46:48;4.72;;;2.50;;
15913;SDS011;8055;51.930;8.840;2023-02-28T10:49:27;5.22;;;2.75;;
15913;SDS011;8055;51.930;8.840;2023-02-28T10:51:59;5.43;;;2.95;;
15913;SDS011;8055;51.930;8.840;2023-02-28T10:54:29;4.13;;;2.90;;
15913;SDS011;8055;51.930;8.840;2023-02-28T10:57:05;5.68;;;2.50;;
15913;SDS011;8055;51.930;8.840;2023-02-28T10:59:32;5.13;;;2.60;;
15913;SDS011;8055;51.930;8.840;2023-02-28T11:01:57;3.65;;;2.42;;
15913;SDS011;8055;51.930;8.840;2023-02-28T11:09:34;3.55;;;2.22;;
15913;SDS011;8055;51.930;8.840;2023-02-28T11:12:04;5.85;;;2.40;;
15913;SDS011;8055;51.930;8.840;2023-02-28T11:14:33;6.75;;;2.53;;
15913;SDS011;8055;51.930;8.840;2023-02-28T11:17:15;3.55;;;2.55;;
15913;SDS011;8055;51.930;8.840;2023-02-28T11:19:47;5.40;;;2.78;;
15913;SDS011;8055;51.930;8.840;2023-02-28T11:22:22;3.83;;;2.20;;
15913;SDS011;8055;51.930;8.840;2023-02-28T11:24:54;4.95;;;2.67;;
15913;SDS011;8055;51.930;8.840;2023-02-28T11:27:25;5.50;;;2.67;;
15913;SDS011;8055;51.930;8.840;2023-02-28T11:29:58;6.63;;;2.90;;
15913;SDS011;8055;51.930;8.840;2023-02-28T11:32:26;6.10;;;2.33;;
15913;SDS011;8055;51.930;8.840;2023-02-28T11:35:36;4.70;;;2.80;;
15913;SDS011;8055;51.930;8.840;2023-02-28T11:37:47;5.85;;;3.08;;
15913;SDS011;8055;51.930;8.840;2023-02-28T11:40:17;4.85;;;2.60;;
15913;SDS011;8055;51.930;8.840;2023-02-28T11:42:52;7.70;;;3.30;;
15913;SDS011;8055;51.930;8.840;2023-02-28T11:51:15;5.00;;;2.83;;
15913;SDS011;8055;51.930;8.840;2023-02-28T11:56:51;5.15;;;2.38;;
15913;SDS011;8055;51.930;8.840;2023-02-28T12:02:28;3.37;;;2.37;;
15913;SDS011;8055;51.930;8.840;2023-02-28T12:10:29;3.88;;;2.17;;
15913;SDS011;8055;51.930;8.840;2023-02-28T12:13:22;6.70;;;2.53;;
15913;SDS011;8055;51.930;8.840;2023-02-28T12:21:32;2.75;;;2.10;;
15913;SDS011;8055;51.930;8.840;2023-02-28T12:26:49;3.35;;;2.17;;
15913;SDS011;8055;51.930;8.840;2023-02-28T12:29:19;3.25;;;2.20;;
15913;SDS011;8055;51.930;8.840;2023-02-28T12:34:19;4.35;;;2.25;;
15913;SDS011;8055;51.930;8.840;2023-02-28T12:36:48;4.95;;;2.30;;
15913;SDS011;8055;51.930;8.840;2023-02-28T12:39:18;4.07;;;2.38;;
15913;SDS011;8055;51.930;8.840;2023-02-28T12:44:27;6.00;;;2.40;;
15913;SDS011;8055;51.930;8.840;2023-02-28T12:47:02;3.92;;;2.70;;
15913;SDS011;8055;51.930;8.840;2023-02-28T12:52:03;5.90;;;2.55;;
15913;SDS011;8055;51.930;8.840;2023-02-28T12:57:08;5.45;;;2.60;;
15913;SDS011;8055;51.930;8.840;2023-02-28T12:59:52;4.38;;;2.72;;
15913;SDS011;8055;51.930;8.840;2023-02-28T13:10:43;4.13;;;2.70;;
15913;SDS011;8055;51.930;8.840;2023-02-28T13:13:14;4.15;;;2.30;;
15913;SDS011;8055;51.930;8.840;2023-02-28T13:15:56;4.07;;;2.35;;
15913;SDS011;8055;51.930;8.840;2023-02-28T13:18:45;4.78;;;2.63;;
15913;SDS011;8055;51.930;8.840;2023-02-28T13:21:24;4.45;;;2.83;;
15913;SDS011;8055;51.930;8.840;2023-02-28T13:23:56;5.32;;;2.95;;
15913;SDS011;8055;51.930;8.840;2023-02-28T13:27:11;4.47;;;2.75;;
15913;SDS011;8055;51.930;8.840;2023-02-28T13:34:35;7.15;;;3.15;;
15913;SDS011;8055;51.930;8.840;2023-02-28T13:39:54;3.63;;;2.65;;
15913;SDS011;8055;51.930;8.840;2023-02-28T13:45:23;6.20;;;2.92;;
15913;SDS011;8055;51.930;8.840;2023-02-28T13:47:54;7.90;;;3.78;;
15913;SDS011;8055;51.930;8.840;2023-02-28T14:07:03;6.45;;;2.88;;
15913;SDS011;8055;51.930;8.840;2023-02-28T14:20:48;6.70;;;4.00;;
15913;SDS011;8055;51.930;8.840;2023-02-28T14:23:40;6.45;;;3.38;;
15913;SDS011;8055;51.930;8.840;2023-02-28T14:29:13;6.85;;;3.55;;
15913;SDS011;8055;51.930;8.840;2023-02-28T14:32:01;4.60;;;3.10;;
15913;SDS011;8055;51.930;8.840;2023-02-28T14:34:39;5.32;;;3.63;;
15913;SDS011;8055;51.930;8.840;2023-02-28T14:37:08;4.75;;;3.10;;
15913;SDS011;8055;51.930;8.840;2023-02-28T14:39:40;5.15;;;3.30;;
15913;SDS011;8055;51.930;8.840;2023-02-28T14:42:24;4.18;;;2.88;;
15913;SDS011;8055;51.930;8.840;2023-02-28T14:44:57;6.20;;;3.35;;
15913;SDS011;8055;51.930;8.840;2023-02-28T14:47:23;4.32;;;2.90;;
15913;SDS011;8055;51.930;8.840;2023-02-28T14:49:55;6.40;;;3.75;;
15913;SDS011;8055;51.930;8.840;2023-02-28T14:52:32;4.95;;;3.20;;
15913;SDS011;8055;51.930;8.840;2023-02-28T14:54:59;5.80;;;3.10;;
15913;SDS011;8055;51.930;8.840;2023-02-28T15:02:49;3.58;;;2.78;;
15913;SDS011;8055;51.930;8.840;2023-02-28T15:07:43;9.00;;;4.72;;
15913;SDS011;8055;51.930;8.840;2023-02-28T15:10:11;17.27;;;6.93;;
15913;SDS011;8055;51.930;8.840;2023-02-28T15:12:52;12.43;;;6.05;;
15913;SDS011;8055;51.930;8.840;2023-02-28T15:15:18;7.75;;;4.20;;
15913;SDS011;8055;51.930;8.840;2023-02-28T15:17:46;12.05;;;6.38;;
15913;SDS011;8055;51.930;8.840;2023-02-28T15:20:15;6.88;;;4.05;;
15913;SDS011;8055;51.930;8.840;2023-02-28T15:22:43;13.57;;;6.70;;
15913;SDS011;8055;51.930;8.840;2023-02-28T15:25:13;14.40;;;7.20;;
15913;SDS011;8055;51.930;8.840;2023-02-28T15:30:19;35.50;;;16.58;;
15913;SDS011;8055;51.930;8.840;2023-02-28T15:36:10;34.05;;;15.38;;
15913;SDS011;8055;51.930;8.840;2023-02-28T15:38:39;11.63;;;6.00;;
15913;SDS011;8055;51.930;8.840;2023-02-28T15:41:04;5.38;;;3.95;;
15913;SDS011;8055;51.930;8.840;2023-02-28T15:43:37;6.93;;;3.80;;
15913;SDS011;8055;51.930;8.840;2023-02-28T15:46:05;5.82;;;3.35;;
15913;SDS011;8055;51.930;8.840;2023-02-28T15:48:42;6.32;;;3.85;;
15913;SDS011;8055;51.930;8.840;2023-02-28T15:51:17;5.03;;;3.13;;
15913;SDS011;8055;51.930;8.840;2023-02-28T15:58:55;5.13;;;3.35;;
15913;SDS011;8055;51.930;8.840;2023-02-28T16:03:54;7.72;;;4.07;;
15913;SDS011;8055;51.930;8.840;2023-02-28T16:09:02;6.70;;;3.50;;
15913;SDS011;8055;51.930;8.840;2023-02-28T16:11:29;5.05;;;3.42;;
15913;SDS011;8055;51.930;8.840;2023-02-28T16:13:55;4.57;;;3.10;;
15913;SDS011;8055;51.930;8.840;2023-02-28T16:16:22;8.40;;;4.00;;
15913;SDS011;8055;51.930;8.840;2023-02-28T16:18:49;7.10;;;3.85;;
15913;SDS011;8055;51.930;8.840;2023-02-28T16:21:15;4.80;;;3.25;;
15913;SDS011;8055;51.930;8.840;2023-02-28T16:23:41;6.97;;;3.90;;
15913;SDS011;8055;51.930;8.840;2023-02-28T16:26:06;5.72;;;3.50;;
15913;SDS011;8055;51.930;8.840;2023-02-28T16:28:34;5.40;;;3.40;;
15913;SDS011;8055;51.930;8.840;2023-02-28T16:31:01;5.70;;;3.40;;
15913;SDS011;8055;51.930;8.840;2023-02-28T16:33:29;4.85;;;3.58;;
15913;SDS011;8055;51.930;8.840;2023-02-28T16:35:55;7.00;;;3.58;;
15913;SDS011;8055;51.930;8.840;2023-02-28T16:38:21;5.57;;;3.22;;
15913;SDS011;8055;51.930;8.840;2023-02-28T16:40:48;5.43;;;3.30;;
15913;SDS011;8055;51.930;8.840;2023-02-28T16:43:16;6.00;;;3.90;;
15913;SDS011;8055;51.930;8.840;2023-02-28T16:45:44;5.93;;;3.50;;
15913;SDS011;8055;51.930;8.840;2023-02-28T16:48:16;6.38;;;3.30;;
15913;SDS011;8055;51.930;8.840;2023-02-28T16:50:42;6.43;;;3.70;;
15913;SDS011;8055;51.930;8.840;2023-02-28T16:53:09;8.48;;;4.22;;
15913;SDS011;8055;51.930;8.840;2023-02-28T16:55:35;5.50;;;3.30;;
15913;SDS011;8055;51.930;8.840;2023-02-28T16:58:01;6.40;;;3.60;;
15913;SDS011;8055;51.930;8.840;2023-02-28T17:00:28;5.72;;;3.83;;
15913;SDS011;8055;51.930;8.840;2023-02-28T17:02:56;8.80;;;3.95;;
15913;SDS011;8055;51.930;8.840;2023-02-28T17:05:22;5.68;;;3.65;;
15913;SDS011;8055;51.930;8.840;2023-02-28T17:07:48;8.55;;;4.15;;
15913;SDS011;8055;51.930;8.840;2023-02-28T17:10:16;6.25;;;3.97;;
15913;SDS011;8055;51.930;8.840;2023-02-28T17:12:44;6.75;;;4.05;;
15913;SDS011;8055;51.930;8.840;2023-02-28T17:15:10;6.15;;;4.18;;
15913;SDS011;8055;51.930;8.840;2023-02-28T17:17:37;10.20;;;4.32;;
15913;SDS011;8055;51.930;8.840;2023-02-28T17:20:03;7.30;;;4.32;;
15913;SDS011;8055;51.930;8.840;2023-02-28T17:22:28;9.40;;;5.72;;
15913;SDS011;8055;51.930;8.840;2023-02-28T17:24:54;16.02;;;6.93;;
15913;SDS011;8055;51.930;8.840;2023-02-28T17:27:23;22.92;;;10.30;;
15913;SDS011;8055;51.930;8.840;2023-02-28T17:29:50;22.58;;;9.50;;
15913;SDS011;8055;51.930;8.840;2023-02-28T17:32:15;19.02;;;10.02;;
15913;SDS011;8055;51.930;8.840;2023-02-28T17:34:41;14.85;;;8.65;;
15913;SDS011;8055;51.930;8.840;2023-02-28T17:37:07;13.88;;;8.00;;
15913;SDS011;8055;51.930;8.840;2023-02-28T17:39:33;11.38;;;6.93;;
15913;SDS011;8055;51.930;8.840;2023-02-28T17:41:59;11.25;;;6.25;;
15913;SDS011;8055;51.930;8.840;2023-02-28T17:44:24;12.07;;;5.85;;
15913;SDS011;8055;51.930;8.840;2023-02-28T17:46:50;7.97;;;5.03;;
15913;SDS011;8055;51.930;8.840;2023-02-28T17:49:18;10.07;;;5.30;;
15913;SDS011;8055;51.930;8.840;2023-02-28T17:51:43;8.90;;;5.53;;